Time;durP1;ratioP1;P1;durP2;ratioP2;P2;SDS_P1;SDS_P2;PMS_P1;PMS_P2;Temp;Humidity;BMP_temperature;BMP_pressure;BME280_temperature;BME280_humidity;BME280_pressure;Samples;Min_cycle;Max_cycle;Signal;HPM_P1;HPM_P2
2023/12/06 00:00:12;;;;;;;;;;;;;;;7.77;100.00;98934.50;4983103;28;19922;-92
2023/12/06 06:12:15;;;;;;;;;;;;;;;7.16;100.00;99257.69;5207728;23;19973;-83
2023/12/06 06:14:40;;;;;;;;;;;;;;;7.22;100.00;99265.38;4984487;28;19961;-83
2023/12/06 06:17:06;;;;;;;;;;;;;;;7.27;100.00;99262.56;4984754;28;19918;-83
2023/12/06 06:19:31;;;;;;;;;;;;;;;7.30;100.00;99262.47;4984995;28;19921;-83
2023/12/06 06:21:56;;;;;;;;;;;;;;;7.34;100.00;99268.47;4984790;28;20025;-83
2023/12/06 06:24:21;;;;;;;;;;;;;;;7.36;100.00;99270.13;4983041;28;19918;-83
2023/12/06 06:26:47;;;;;;;;;;;;;;;7.40;100.00;99269.13;4983221;28;20017;-83
2023/12/06 06:29:12;;;;;;;;;;;;;;;7.42;100.00;99274.31;4984916;28;20304;-86
2023/12/06 06:31:37;;;;;;;;;;;;;;;7.46;100.00;99278.53;4984488;28;19914;-84
2023/12/06 06:34:03;;;;;;;;;;;;;;;7.48;100.00;99281.97;4984196;28;19921;-83
2023/12/06 06:36:28;;;;;;;;;;;;;;;7.51;100.00;99278.38;4983846;28;19919;-83
2023/12/06 06:38:55;;;;;;;;;;;;;;;7.54;100.00;99284.38;4982975;28;20050;-84
2023/12/06 06:41:20;;;;;;;;;;;;;;;7.57;100.00;99286.06;4981701;28;19969;-85
2023/12/06 06:43:46;;;;;;;;;;;;;;;7.58;100.00;99283.34;4984376;28;20419;-84
2023/12/06 06:46:12;;;;;;;;;;;;;;;7.62;100.00;99292.00;4982676;28;19919;-85
2023/12/06 06:48:37;;;;;;;;;;;;;;;7.64;100.00;99295.44;4984109;28;20444;-84
2023/12/06 06:51:03;;;;;;;;;;;;;;;7.65;100.00;99299.78;4984568;28;20001;-85
2023/12/06 06:53:28;;;;;;;;;;;;;;;7.68;100.00;99306.75;4984196;28;20387;-85
2023/12/06 06:55:53;;;;;;;;;;;;;;;7.70;100.00;99312.81;4982666;28;19918;-81
2023/12/06 06:58:19;;;;;;;;;;;;;;;7.71;100.00;99314.53;4983768;28;19917;-84
2023/12/06 07:00:44;;;;;;;;;;;;;;;7.74;100.00;99325.81;4984373;28;19918;-83
2023/12/06 07:03:11;;;;;;;;;;;;;;;7.75;100.00;99332.78;4982748;28;19914;-85
2023/12/06 07:05:37;;;;;;;;;;;;;;;7.78;100.00;99326.56;4983472;28;20388;-85
2023/12/06 07:08:02;;;;;;;;;;;;;;;7.80;100.00;99336.13;4983834;28;19918;-86
2023/12/06 07:10:27;;;;;;;;;;;;;;;7.82;100.00;99336.94;4982784;28;19924;-85
2023/12/06 07:12:53;;;;;;;;;;;;;;;7.85;100.00;99332.44;4983492;28;19922;-82
2023/12/06 07:15:18;;;;;;;;;;;;;;;7.21;100.00;99342.72;4983542;28;19926;-83
2023/12/06 07:17:44;;;;;;;;;;;;;;;6.18;100.00;99357.59;4983761;28;19961;-83
2023/12/06 07:20:11;;;;;;;;;;;;;;;5.79;100.00;99354.38;4983796;28;20016;-81
2023/12/06 07:22:37;;;;;;;;;;;;;;;5.56;100.00;99365.59;4982638;28;19922;-83
2023/12/06 07:25:02;;;;;;;;;;;;;;;5.36;100.00;99358.25;4983478;28;20290;-82
2023/12/06 07:27:27;;;;;;;;;;;;;;;5.22;100.00;99372.66;4981890;28;20339;-80
2023/12/06 07:29:53;;;;;;;;;;;;;;;5.14;100.00;99371.13;4983573;28;19929;-81
2023/12/06 07:32:18;;;;;;;;;;;;;;;4.99;100.00;99369.78;4983654;28;19922;-81
2023/12/06 07:34:43;;;;;;;;;;;;;;;4.94;100.00;99369.06;4982014;28;19918;-81
2023/12/06 07:37:09;;;;;;;;;;;;;;;4.84;100.00;99376.31;4983338;28;19929;-81
2023/12/06 07:39:34;;;;;;;;;;;;;;;4.76;100.00;99371.25;4983402;28;19926;-82
2023/12/06 07:41:59;;;;;;;;;;;;;;;4.69;100.00;99372.31;4982503;28;19921;-82
2023/12/06 07:44:24;;;;;;;;;;;;;;;4.67;100.00;99380.22;4983043;28;19917;-83
2023/12/06 07:46:49;;;;;;;;;;;;;;;4.59;100.00;99381.31;4983421;28;19981;-83
2023/12/06 07:49:15;;;;;;;;;;;;;;;4.58;100.00;99384.84;4981203;28;19918;-81
2023/12/06 07:51:41;;;;;;;;;;;;;;;4.50;100.00;99385.91;4982830;28;19922;-83
2023/12/06 07:54:07;;;;;;;;;;;;;;;4.42;100.00;99389.59;4983446;28;19953;-84
2023/12/06 07:56:33;;;;;;;;;;;;;;;4.43;100.00;99392.19;4981878;28;19922;-83
2023/12/06 07:58:58;;;;;;;;;;;;;;;4.32;100.00;99394.19;4981141;28;19942;-83
2023/12/06 08:01:24;;;;;;;;;;;;;;;4.85;100.00;99392.03;4981497;28;19922;-82
2023/12/06 08:03:49;;;;;;;;;;;;;;;5.41;100.00;99404.53;4982259;28;20349;-82
2023/12/06 08:06:15;;;;;;;;;;;;;;;5.75;100.00;99410.59;4981431;28;19918;-81
2023/12/06 08:08:40;;;;;;;;;;;;;;;5.98;100.00;99410.81;4982901;28;19976;-82
2023/12/06 08:11:06;;;;;;;;;;;;;;;6.20;100.00;99414.56;4981751;28;20353;-82
2023/12/06 08:13:31;;;;;;;;;;;;;;;6.34;100.00;99423.75;4981743;28;20446;-81
2023/12/06 08:15:56;;;;;;;;;;;;;;;6.50;100.00;99418.84;4981643;28;20379;-81
2023/12/06 08:18:21;;;;;;;;;;;;;;;6.64;100.00;99422.84;4982648;28;19992;-82
2023/12/06 08:20:47;;;;;;;;;;;;;;;6.75;100.00;99417.19;4983024;28;19918;-80
2023/12/06 08:23:12;;;;;;;;;;;;;;;6.85;100.00;99423.91;4983190;28;19929;-83
2023/12/06 08:25:37;;;;;;;;;;;;;;;6.94;100.00;99422.72;4981375;28;19922;-81
2023/12/06 08:28:02;;;;;;;;;;;;;;;7.01;100.00;99418.97;4982472;28;19922;-82
2023/12/06 08:30:28;;;;;;;;;;;;;;;7.06;100.00;99419.66;4981524;28;19918;-83
2023/12/06 08:32:53;;;;;;;;;;;;;;;7.12;100.00;99423.88;4981982;28;19926;-84
2023/12/06 08:35:19;;;;;;;;;;;;;;;7.17;100.00;99416.66;4981099;28;19962;-83
2023/12/06 08:37:45;;;;;;;;;;;;;;;7.22;100.00;99412.94;4982791;28;20000;-83
2023/12/06 08:40:12;;;;;;;;;;;;;;;7.27;100.00;99420.69;4981613;28;19926;-84
2023/12/06 08:42:38;;;;;;;;;;;;;;;7.30;100.00;99419.72;4981207;28;20262;-84
2023/12/06 09:00:34;;;;;;;;;;;;;;;7.56;100.00;99440.75;5377233;23;19933;-89
2023/12/06 09:03:01;;;;;;;;;;;;;;;7.60;100.00;99446.78;5006570;28;19928;-95
2023/12/06 09:05:28;;;;;;;;;;;;;;;7.63;100.00;99444.03;5005543;28;19926;-88
2023/12/06 09:07:54;;;;;;;;;;;;;;;7.64;100.00;99448.38;5005557;28;20452;-87
2023/12/06 09:10:19;;;;;;;;;;;;;;;7.66;100.00;99449.19;5004097;28;20001;-87
2023/12/06 09:12:45;;;;;;;;;;;;;;;9.86;100.00;99436.78;5004049;28;19925;-90
2023/12/06 09:15:10;;;;;;;;;;;;;;;12.90;100.00;99423.81;5019178;28;19952;-86
2023/12/06 09:17:35;;;;;;;;;;;;;;;10.55;100.00;99443.31;5003937;28;19922;-85
2023/12/06 09:20:00;;;;;;;;;;;;;;;7.26;100.00;99448.81;5004055;28;19922;-86
2023/12/06 09:22:26;;;;;;;;;;;;;;;6.32;100.00;99462.41;5004932;28;19932;-86
2023/12/06 09:24:52;;;;;;;;;;;;;;;5.88;100.00;99471.59;5003973;28;19922;-85
2023/12/06 09:27:17;;;;;;;;;;;;;;;5.60;100.00;99472.34;5004181;28;19925;-85
2023/12/06 09:29:45;;;;;;;;;;;;;;;5.36;100.00;99473.88;5003936;28;20467;-85
2023/12/06 09:32:11;;;;;;;;;;;;;;;5.22;100.00;99476.88;5004925;28;20381;-85
2023/12/06 09:34:36;;;;;;;;;;;;;;;5.08;100.00;99480.72;5005532;28;19944;-86
2023/12/06 09:37:01;;;;;;;;;;;;;;;4.97;100.00;99481.88;5005188;28;20020;-85
2023/12/06 09:39:26;;;;;;;;;;;;;;;4.90;100.00;99482.03;5005228;28;19980;-85
2023/12/06 09:41:52;;;;;;;;;;;;;;;4.80;100.00;99480.50;5004977;28;19917;-85
2023/12/06 09:44:17;;;;;;;;;;;;;;;4.70;100.00;99489.53;5001895;28;19928;-85
2023/12/06 09:46:43;;;;;;;;;;;;;;;4.61;100.00;99480.13;5004644;28;20092;-84
2023/12/06 09:49:08;;;;;;;;;;;;;;;4.58;100.00;99485.44;5004571;28;19968;-83
2023/12/06 09:51:34;;;;;;;;;;;;;;;4.51;100.00;99494.34;5003395;28;19921;-81
2023/12/06 09:53:59;;;;;;;;;;;;;;;4.45;100.00;99490.09;5004735;28;20299;-84
2023/12/06 09:56:24;;;;;;;;;;;;;;;4.36;100.00;99485.06;5003364;28;19924;-83
2023/12/06 09:58:50;;;;;;;;;;;;;;;4.33;100.00;99488.59;5004485;28;19957;-83
2023/12/06 10:01:15;;;;;;;;;;;;;;;4.30;100.00;99495.69;5003423;28;19928;-89
2023/12/06 10:03:40;;;;;;;;;;;;;;;4.26;100.00;99509.75;5004344;28;19918;-85
2023/12/06 10:06:06;;;;;;;;;;;;;;;4.30;100.00;99507.03;5004622;28;20019;-86
2023/12/06 10:08:32;;;;;;;;;;;;;;;5.16;100.00;99516.44;5004980;28;19965;-83
2023/12/06 10:11:04;;;;;;;;;;;;;;;5.62;100.00;99518.72;5001509;28;20001;-85
2023/12/06 10:13:30;;;;;;;;;;;;;;;5.92;100.00;99529.31;5003424;28;20447;-83
2023/12/06 10:15:55;;;;;;;;;;;;;;;6.13;100.00;99529.66;5001936;28;19917;-85
2023/12/06 10:18:20;;;;;;;;;;;;;;;6.30;100.00;99516.88;5003826;28;19972;-86
2023/12/06 10:20:46;;;;;;;;;;;;;;;6.46;100.00;99525.16;5004318;28;19932;-83
2023/12/06 10:23:11;;;;;;;;;;;;;;;6.59;100.00;99528.28;5003213;28;19932;-84
2023/12/06 10:25:38;;;;;;;;;;;;;;;6.72;100.00;99526.97;5004114;28;19928;-86
2023/12/06 10:28:03;;;;;;;;;;;;;;;6.84;100.00;99527.50;5004160;28;20040;-83
2023/12/06 10:30:28;;;;;;;;;;;;;;;6.93;100.00;99527.22;5001146;28;20365;-82
2023/12/06 10:32:55;;;;;;;;;;;;;;;7.00;100.00;99523.47;4996470;28;19971;-83
2023/12/06 10:35:20;;;;;;;;;;;;;;;7.08;100.00;99526.72;5017132;28;19918;-82
2023/12/06 10:37:48;;;;;;;;;;;;;;;7.16;100.00;99517.69;5003989;28;19950;-83
2023/12/06 10:40:14;;;;;;;;;;;;;;;7.22;100.00;99514.88;5002714;28;19928;-82
2023/12/06 10:42:43;;;;;;;;;;;;;;;7.26;100.00;99513.88;4999457;28;19922;-83
2023/12/06 10:45:10;;;;;;;;;;;;;;;7.34;100.00;99505.66;4995467;28;19917;-83
2023/12/06 10:47:36;;;;;;;;;;;;;;;7.37;100.00;99506.44;5002532;28;20063;-83
2023/12/06 10:50:03;;;;;;;;;;;;;;;7.42;100.00;99504.50;5003500;28;20427;-82
2023/12/06 10:52:29;;;;;;;;;;;;;;;7.46;100.00;99510.53;5002562;28;19923;-87
2023/12/06 10:54:55;;;;;;;;;;;;;;;7.50;100.00;99500.72;5002473;28;19918;-86
2023/12/06 10:57:21;;;;;;;;;;;;;;;7.55;100.00;99496.19;5002167;28;20357;-84
2023/12/06 10:59:46;;;;;;;;;;;;;;;7.59;100.00;99501.28;5002183;28;19965;-85
2023/12/06 11:02:12;;;;;;;;;;;;;;;7.61;100.00;99503.84;5003740;28;20445;-86
2023/12/06 11:04:57;;;;;;;;;;;;;;;7.62;100.00;99501.16;5003675;28;20299;-85
2023/12/06 11:07:38;;;;;;;;;;;;;;;7.67;100.00;99506.28;5002541;28;19925;-82
2023/12/06 11:10:22;;;;;;;;;;;;;;;7.72;100.00;99507.00;5001181;28;20340;-82
2023/12/06 11:12:52;;;;;;;;;;;;;;;7.73;100.00;99498.16;5003249;28;20368;-83
2023/12/06 11:15:28;;;;;;;;;;;;;;;7.77;100.00;99496.25;5000744;28;20361;-92
2023/12/06 11:18:10;;;;;;;;;;;;;;;7.78;100.00;99496.19;5002470;28;20364;-83
2023/12/06 11:20:37;;;;;;;;;;;;;;;7.86;100.00;99505.63;5002548;28;19925;-85
2023/12/06 11:23:02;;;;;;;;;;;;;;;7.86;100.00;99510.91;5001094;28;20292;-84
2023/12/06 11:25:28;;;;;;;;;;;;;;;7.26;100.00;99511.22;5003157;28;19918;-84
2023/12/06 11:27:54;;;;;;;;;;;;;;;6.04;100.00;99514.13;5001437;28;20264;-85
2023/12/06 11:30:19;;;;;;;;;;;;;;;5.54;100.00;99515.44;5000172;28;20388;-83
2023/12/06 11:32:45;;;;;;;;;;;;;;;5.25;100.00;99514.44;5002227;28;19918;-84
2023/12/06 11:35:11;;;;;;;;;;;;;;;5.03;100.00;99515.88;5003055;28;19918;-84
2023/12/06 11:37:36;;;;;;;;;;;;;;;4.94;100.00;99513.47;5002797;28;20405;-84
2023/12/06 11:40:08;;;;;;;;;;;;;;;4.79;100.00;99520.81;5001917;28;20037;-86
2023/12/06 11:42:37;;;;;;;;;;;;;;;4.72;100.00;99519.22;5002979;28;20000;-84
2023/12/06 11:45:03;;;;;;;;;;;;;;;4.66;100.00;99509.75;5000195;28;19921;-83
2023/12/06 11:47:33;;;;;;;;;;;;;;;4.57;100.00;99516.97;5002948;28;20001;-85
2023/12/06 11:50:00;;;;;;;;;;;;;;;4.52;100.00;99515.28;5018895;28;19976;-86
2023/12/06 11:52:25;;;;;;;;;;;;;;;4.42;100.00;99519.03;5001615;28;19917;-84
2023/12/06 11:54:51;;;;;;;;;;;;;;;4.42;100.00;99520.78;5001366;28;20379;-84
2023/12/06 11:57:16;;;;;;;;;;;;;;;4.38;100.00;99525.22;5001946;28;19918;-86
2023/12/06 11:59:42;;;;;;;;;;;;;;;4.34;100.00;99521.81;5000617;28;19953;-87
2023/12/06 12:02:07;;;;;;;;;;;;;;;4.25;100.00;99529.88;5002048;28;19932;-89
2023/12/06 12:04:36;;;;;;;;;;;;;;;4.26;100.00;99533.34;4997220;28;19918;-90
2023/12/06 12:07:04;;;;;;;;;;;;;;;4.18;100.00;99516.03;5002332;28;19928;-90
2023/12/06 12:09:30;;;;;;;;;;;;;;;4.13;100.00;99524.88;5000798;28;20012;-88
2023/12/06 12:11:56;;;;;;;;;;;;;;;4.79;100.00;99523.44;5002257;28;20017;-88
2023/12/06 12:14:21;;;;;;;;;;;;;;;5.40;100.00;99528.09;4999743;28;20479;-90
2023/12/06 12:16:46;;;;;;;;;;;;;;;5.74;100.00;99527.19;5001473;28;20019;-91
2023/12/06 12:19:12;;;;;;;;;;;;;;;5.97;100.00;99537.13;5001358;28;19921;-90
2023/12/06 12:21:37;;;;;;;;;;;;;;;6.18;100.00;99533.84;5005876;28;20019;-90
2023/12/06 12:24:02;;;;;;;;;;;;;;;6.30;100.00;99532.66;5003219;28;19922;-91
2023/12/06 12:26:29;;;;;;;;;;;;;;;6.46;100.00;99535.69;4999610;28;19921;-88
2023/12/06 12:28:54;;;;;;;;;;;;;;;6.62;100.00;99537.84;5000380;28;20040;-87
2023/12/06 12:31:20;;;;;;;;;;;;;;;6.71;100.00;99538.41;5002517;28;20433;-90
2023/12/06 12:33:46;;;;;;;;;;;;;;;6.82;100.00;99539.88;5002290;28;19979;-92
2023/12/06 12:36:12;;;;;;;;;;;;;;;6.91;100.00;99535.16;5004942;28;19972;-92
2023/12/06 12:38:41;;;;;;;;;;;;;;;6.99;100.00;99529.66;5005713;28;19924;-89
2023/12/06 12:41:09;;;;;;;;;;;;;;;7.06;100.00;99528.53;5006294;28;19918;-93
2023/12/06 12:43:35;;;;;;;;;;;;;;;7.15;100.00;99534.41;5004228;28;19921;-90
2023/12/06 12:46:00;;;;;;;;;;;;;;;7.21;100.00;99528.94;5005432;28;19917;-91
2023/12/06 12:48:25;;;;;;;;;;;;;;;7.24;100.00;99526.22;5005019;28;20289;-84
2023/12/06 12:51:05;;;;;;;;;;;;;;;7.30;100.00;99530.44;5005588;28;19921;-85
2023/12/06 12:53:30;;;;;;;;;;;;;;;7.34;100.00;99522.38;5004210;28;19952;-84
2023/12/06 12:55:56;;;;;;;;;;;;;;;7.41;100.00;99509.84;5004983;28;19968;-84
2023/12/06 12:58:21;;;;;;;;;;;;;;;7.45;100.00;99522.88;5006043;28;19941;-87
2023/12/06 13:00:50;;;;;;;;;;;;;;;7.49;100.00;99522.75;4999924;28;19922;-83
2023/12/06 13:03:16;;;;;;;;;;;;;;;7.52;100.00;99520.03;5006579;28;19921;-86
2023/12/06 13:05:41;;;;;;;;;;;;;;;7.55;100.00;99519.91;5005307;28;19921;-85
2023/12/06 13:08:10;;;;;;;;;;;;;;;7.58;100.00;99523.31;5005858;28;19972;-83
2023/12/06 13:10:35;;;;;;;;;;;;;;;7.61;100.00;99531.09;5004096;28;19918;-88
2023/12/06 13:13:00;;;;;;;;;;;;;;;7.64;100.00;99530.13;5005813;28;20429;-91
2023/12/06 13:15:25;;;;;;;;;;;;;;;7.67;100.00;99524.75;5004541;28;19925;-94
2023/12/06 13:17:51;;;;;;;;;;;;;;;7.68;100.00;99521.19;5004178;28;19925;-91
2023/12/06 13:20:16;;;;;;;;;;;;;;;7.72;100.00;99524.59;5006989;28;19921;-89
2023/12/06 13:22:41;;;;;;;;;;;;;;;7.76;100.00;99534.13;5005793;28;20377;-90
2023/12/06 13:25:07;;;;;;;;;;;;;;;7.77;100.00;99536.69;5008296;28;19928;-91
2023/12/06 13:27:33;;;;;;;;;;;;;;;7.78;100.00;99538.41;5005812;28;19925;-90
2023/12/06 13:29:58;;;;;;;;;;;;;;;7.84;100.00;99536.50;5005729;28;19928;-90
2023/12/06 13:32:23;;;;;;;;;;;;;;;7.84;100.00;99537.34;5006838;28;19988;-93
2023/12/06 13:34:48;;;;;;;;;;;;;;;7.87;100.00;99536.38;5006605;28;19917;-92
2023/12/06 13:37:14;;;;;;;;;;;;;;;6.71;100.00;99541.06;5006631;28;19929;-90
2023/12/06 13:39:40;;;;;;;;;;;;;;;5.79;100.00;99543.69;5005551;28;19918;-88
2023/12/06 13:42:06;;;;;;;;;;;;;;;5.40;100.00;99544.69;5003774;28;19975;-90
2023/12/06 13:44:31;;;;;;;;;;;;;;;5.19;100.00;99551.38;5003707;28;19979;-90
2023/12/06 13:46:57;;;;;;;;;;;;;;;5.02;100.00;99554.38;5002851;28;19922;-85
2023/12/06 13:49:22;;;;;;;;;;;;;;;4.94;100.00;99556.34;5003513;28;20008;-84
2023/12/06 13:51:47;;;;;;;;;;;;;;;4.79;100.00;99569.84;5005775;28;19918;-82
2023/12/06 13:54:13;;;;;;;;;;;;;;;4.71;100.00;99570.00;5005613;28;20289;-87
2023/12/06 13:56:38;;;;;;;;;;;;;;;4.60;100.00;99572.84;5004774;28;19971;-87
2023/12/06 13:59:04;;;;;;;;;;;;;;;4.52;100.00;99575.63;5001823;28;19960;-87
2023/12/06 14:01:29;;;;;;;;;;;;;;;4.48;100.00;99587.13;5003732;28;20434;-88
2023/12/06 14:03:56;;;;;;;;;;;;;;;4.43;100.00;99585.47;5004325;28;19921;-91
2023/12/06 14:06:24;;;;;;;;;;;;;;;4.33;100.00;99590.06;5003491;28;19922;-85
2023/12/06 14:08:50;;;;;;;;;;;;;;;4.30;100.00;99587.50;5004154;28;19940;-82
2023/12/06 14:11:16;;;;;;;;;;;;;;;4.25;100.00;99589.34;5004055;28;19917;-86
2023/12/06 14:13:41;;;;;;;;;;;;;;;4.23;100.00;99594.63;5005659;28;19965;-91
2023/12/06 14:16:07;;;;;;;;;;;;;;;4.17;100.00;99595.59;5004154;28;19924;-89
2023/12/06 14:18:33;;;;;;;;;;;;;;;4.17;100.00;99595.59;5004877;28;19949;-85
2023/12/06 14:20:58;;;;;;;;;;;;;;;4.39;100.00;99600.41;5004860;28;19926;-89
2023/12/06 14:23:23;;;;;;;;;;;;;;;5.19;100.00;99603.91;5002910;28;19917;-89
2023/12/06 14:25:48;;;;;;;;;;;;;;;5.61;100.00;99603.72;5003092;28;20318;-87
2023/12/06 14:28:13;;;;;;;;;;;;;;;5.89;100.00;99608.28;5003823;28;20031;-89
2023/12/06 14:30:39;;;;;;;;;;;;;;;6.10;100.00;99608.66;5001942;28;19925;-89
2023/12/06 14:33:04;;;;;;;;;;;;;;;6.29;100.00;99609.00;5003110;28;20377;-88
2023/12/06 14:35:29;;;;;;;;;;;;;;;6.44;100.00;99608.56;5003710;28;19925;-86
2023/12/06 14:37:55;;;;;;;;;;;;;;;6.58;100.00;99610.78;5018631;28;19925;-87
2023/12/06 14:40:20;;;;;;;;;;;;;;;6.70;100.00;99604.28;5004828;28;20359;-88
2023/12/06 14:42:45;;;;;;;;;;;;;;;6.83;100.00;99604.78;5003683;28;19927;-89
2023/12/06 14:45:12;;;;;;;;;;;;;;;6.95;100.00;99612.31;5000908;28;19924;-90
2023/12/06 14:47:37;;;;;;;;;;;;;;;7.01;100.00;99614.78;5004501;28;19925;-88
2023/12/06 14:50:04;;;;;;;;;;;;;;;7.08;100.00;99613.69;5002319;28;19922;-84
2023/12/06 14:52:30;;;;;;;;;;;;;;;7.16;100.00;99617.84;5002540;28;20016;-88
2023/12/06 14:54:55;;;;;;;;;;;;;;;7.23;100.00;99624.66;5002450;28;20375;-84
2023/12/06 14:57:20;;;;;;;;;;;;;;;7.27;100.00;99626.25;5004189;28;20376;-85
2023/12/06 14:59:45;;;;;;;;;;;;;;;7.32;100.00;99629.59;5002137;28;20381;-86
2023/12/06 15:02:11;;;;;;;;;;;;;;;7.34;100.00;99627.81;5001168;28;19964;-91
2023/12/06 15:04:37;;;;;;;;;;;;;;;7.40;100.00;99632.88;5004304;28;19957;-84
2023/12/06 15:07:02;;;;;;;;;;;;;;;7.43;100.00;99640.66;5003284;28;19960;-85
2023/12/06 15:09:27;;;;;;;;;;;;;;;7.49;100.00;99636.13;5003331;28;19959;-86
2023/12/06 15:11:54;;;;;;;;;;;;;;;7.52;100.00;99631.59;5002681;28;20373;-84
2023/12/06 15:14:19;;;;;;;;;;;;;;;7.53;100.00;99643.00;5000630;28;20480;-83
2023/12/06 15:16:45;;;;;;;;;;;;;;;7.57;100.00;99640.22;5001681;28;20016;-85
2023/12/06 15:19:10;;;;;;;;;;;;;;;7.60;100.00;99645.41;5001988;28;20396;-85
2023/12/06 15:21:35;;;;;;;;;;;;;;;7.64;100.00;99648.78;5002902;28;19921;-84
2023/12/06 15:24:00;;;;;;;;;;;;;;;7.66;100.00;99648.75;5003198;28;19925;-83
2023/12/06 15:26:26;;;;;;;;;;;;;;;7.69;100.00;99654.78;4999741;28;20025;-86
2023/12/06 15:28:51;;;;;;;;;;;;;;;7.70;100.00;99661.78;5001972;28;20027;-85
2023/12/06 15:31:16;;;;;;;;;;;;;;;7.73;100.00;99664.31;5000351;28;19957;-87
2023/12/06 15:33:41;;;;;;;;;;;;;;;7.76;100.00;99666.00;5000678;28;19922;-85
2023/12/06 15:36:08;;;;;;;;;;;;;;;7.78;100.00;99664.16;5003193;28;19921;-87
2023/12/06 15:38:34;;;;;;;;;;;;;;;7.79;100.00;99661.47;5002670;28;19928;-86
2023/12/06 15:40:59;;;;;;;;;;;;;;;7.83;100.00;99662.22;5002258;28;19917;-88
2023/12/06 15:43:24;;;;;;;;;;;;;;;7.85;100.00;99665.69;5002183;28;19968;-87
2023/12/06 15:45:49;;;;;;;;;;;;;;;6.83;100.00;99662.72;5000087;28;19925;-86
2023/12/06 15:48:14;;;;;;;;;;;;;;;5.88;100.00;99672.28;5002960;28;19928;-89
2023/12/06 15:50:40;;;;;;;;;;;;;;;5.45;100.00;99675.97;5003071;28;20409;-88
2023/12/06 15:53:05;;;;;;;;;;;;;;;5.21;100.00;99687.94;5001092;28;20340;-85
2023/12/06 15:55:31;;;;;;;;;;;;;;;5.03;100.00;99695.31;5002202;28;19953;-87
2023/12/06 15:57:56;;;;;;;;;;;;;;;4.93;100.00;99700.78;5000177;28;19949;-84
2023/12/06 16:00:21;;;;;;;;;;;;;;;4.84;100.00;99714.97;4999935;28;19968;-87
2023/12/06 16:02:46;;;;;;;;;;;;;;;4.72;100.00;99708.19;5003273;28;19924;-87
2023/12/06 16:05:12;;;;;;;;;;;;;;;4.60;100.00;99711.09;5000862;28;19925;-84
2023/12/06 16:07:39;;;;;;;;;;;;;;;4.52;100.00;99719.97;5001069;28;20313;-85
2023/12/06 16:10:05;;;;;;;;;;;;;;;4.48;100.00;99723.56;5001063;28;19972;-94
2023/12/06 16:12:33;;;;;;;;;;;;;;;4.44;100.00;99726.28;5002472;28;19917;-85
2023/12/06 16:14:58;;;;;;;;;;;;;;;4.40;100.00;99728.06;5000373;28;19918;-84
2023/12/06 16:17:23;;;;;;;;;;;;;;;4.33;100.00;99736.94;4999907;28;19918;-90
2023/12/06 16:19:48;;;;;;;;;;;;;;;4.28;100.00;99736.19;5004937;28;19925;-87
2023/12/06 16:22:14;;;;;;;;;;;;;;;4.21;100.00;99742.41;5001520;28;19996;-86
2023/12/06 16:24:39;;;;;;;;;;;;;;;4.76;100.00;99751.03;5000008;28;20013;-90
2023/12/06 16:27:04;;;;;;;;;;;;;;;5.42;100.00;99747.84;5000942;28;19924;-82
2023/12/06 16:29:29;;;;;;;;;;;;;;;5.83;100.00;99753.06;5003122;28;20380;-87
2023/12/06 16:31:55;;;;;;;;;;;;;;;6.07;100.00;99748.16;5003949;28;19921;-88
2023/12/06 16:34:20;;;;;;;;;;;;;;;6.28;100.00;99752.00;5001715;28;19917;-86
2023/12/06 16:36:46;;;;;;;;;;;;;;;6.48;100.00;99756.75;5001952;28;19941;-89
2023/12/06 16:39:11;;;;;;;;;;;;;;;6.61;100.00;99768.69;5000871;28;20003;-89
2023/12/06 16:41:37;;;;;;;;;;;;;;;6.73;100.00;99763.09;5001940;28;20304;-89
2023/12/06 16:44:02;;;;;;;;;;;;;;;6.86;100.00;99765.34;5001207;28;19918;-92
2023/12/06 16:46:27;;;;;;;;;;;;;;;6.94;100.00;99776.56;5004986;28;19976;-88
2023/12/06 16:48:53;;;;;;;;;;;;;;;7.04;100.00;99779.81;5003639;28;19917;-81
2023/12/06 16:51:18;;;;;;;;;;;;;;;7.37;100.00;99770.06;5002684;28;19913;-87
2023/12/06 16:53:43;;;;;;;;;;;;;;;7.39;100.00;99778.78;5002458;28;19988;-88
2023/12/06 16:56:08;;;;;;;;;;;;;;;7.22;100.00;99781.03;5004595;28;19967;-87
2023/12/06 16:58:34;;;;;;;;;;;;;;;7.19;100.00;99781.13;4999653;28;19921;-90
2023/12/06 17:01:00;;;;;;;;;;;;;;;7.38;100.00;99782.31;5002208;28;20424;-92
2023/12/06 17:03:25;;;;;;;;;;;;;;;7.42;100.00;99783.09;5003178;28;19918;-93
2023/12/06 17:05:50;;;;;;;;;;;;;;;7.48;100.00;99784.66;5002829;28;19922;-88
2023/12/06 17:08:16;;;;;;;;;;;;;;;7.50;100.00;99782.84;5001558;28;19924;-87
2023/12/06 17:10:41;;;;;;;;;;;;;;;7.52;100.00;99783.69;5002604;28;19926;-85
2023/12/06 17:13:06;;;;;;;;;;;;;;;7.55;100.00;99783.59;5001649;28;19918;-87
2023/12/06 17:15:34;;;;;;;;;;;;;;;7.58;100.00;99788.78;5001292;28;19933;-92
2023/12/06 17:17:59;;;;;;;;;;;;;;;7.61;100.00;99794.81;5001299;28;19925;-87
2023/12/06 17:20:24;;;;;;;;;;;;;;;7.64;100.00;99791.19;5000908;28;19922;-88
2023/12/06 17:22:49;;;;;;;;;;;;;;;7.67;100.00;99804.28;5002652;28;19924;-88
2023/12/06 17:25:15;;;;;;;;;;;;;;;7.70;100.00;99811.25;5005231;28;20284;-85
2023/12/06 17:27:40;;;;;;;;;;;;;;;7.74;100.00;99821.66;5005206;28;19917;-87
2023/12/06 17:30:08;;;;;;;;;;;;;;;7.76;100.00;99814.56;5004702;28;19922;-86
2023/12/06 17:32:33;;;;;;;;;;;;;;;7.79;100.00;99817.09;5005047;28;19921;-85
2023/12/06 17:34:58;;;;;;;;;;;;;;;7.80;100.00;99821.47;5005493;28;19917;-86
2023/12/06 17:37:24;;;;;;;;;;;;;;;7.81;100.00;99822.34;5003836;28;20032;-86
2023/12/06 17:39:49;;;;;;;;;;;;;;;7.84;100.00;99824.03;5005054;28;20416;-84
2023/12/06 17:42:14;;;;;;;;;;;;;;;7.85;100.00;99820.47;5003839;28;19917;-84
2023/12/06 17:44:39;;;;;;;;;;;;;;;7.26;100.00;99822.22;5002574;28;19918;-85
2023/12/06 17:47:05;;;;;;;;;;;;;;;6.10;100.00;99825.22;5004225;28;19918;-85
2023/12/06 17:49:30;;;;;;;;;;;;;;;5.74;100.00;99837.41;5005148;28;19949;-86
2023/12/06 17:51:55;;;;;;;;;;;;;;;5.48;100.00;99844.13;5003457;28;19979;-83
2023/12/06 17:54:20;;;;;;;;;;;;;;;5.33;100.00;99854.94;5004608;28;19917;-84
2023/12/06 17:56:46;;;;;;;;;;;;;;;5.20;100.00;99847.31;5003320;28;19917;-86
2023/12/06 17:59:11;;;;;;;;;;;;;;;5.08;100.00;99855.44;5002264;28;19922;-84
2023/12/06 18:01:36;;;;;;;;;;;;;;;4.98;100.00;99851.22;5004683;28;19967;-84
2023/12/06 18:04:01;;;;;;;;;;;;;;;4.86;100.00;99857.59;5003154;28;19922;-84
2023/12/06 18:06:27;;;;;;;;;;;;;;;4.79;100.00;99859.47;5002048;28;19922;-85
2023/12/06 18:08:52;;;;;;;;;;;;;;;4.75;100.00;99855.16;5003435;28;20012;-84
2023/12/06 18:11:18;;;;;;;;;;;;;;;4.68;100.00;99864.03;5004518;28;19965;-86
2023/12/06 18:13:46;;;;;;;;;;;;;;;4.63;100.00;99861.50;5004141;28;19924;-91
2023/12/06 18:16:13;;;;;;;;;;;;;;;4.56;100.00;99875.59;5002155;28;19931;-84
2023/12/06 18:18:39;;;;;;;;;;;;;;;4.53;100.00;99867.78;5004214;28;19926;-83
2023/12/06 18:21:05;;;;;;;;;;;;;;;5.28;100.00;99869.03;5003957;28;19983;-84
2023/12/06 18:23:30;;;;;;;;;;;;;;;5.67;100.00;99877.91;5004080;28;19918;-83
2023/12/06 18:25:59;;;;;;;;;;;;;;;5.94;100.00;99876.44;5004017;28;20038;-87
2023/12/06 18:28:25;;;;;;;;;;;;;;;6.08;100.00;99874.38;5001643;28;20012;-89
2023/12/06 18:30:50;;;;;;;;;;;;;;;6.23;100.00;99883.69;5002246;28;20048;-89
2023/12/06 18:33:15;;;;;;;;;;;;;;;6.32;100.00;99883.47;5003418;28;19917;-87
2023/12/06 18:35:40;;;;;;;;;;;;;;;6.41;100.00;99873.63;5003991;28;19973;-87
2023/12/06 18:38:06;;;;;;;;;;;;;;;6.50;100.00;99871.63;5002732;28;19922;-83
2023/12/06 18:40:31;;;;;;;;;;;;;;;6.57;100.00;99867.06;5002019;28;19917;-86
2023/12/06 18:42:58;;;;;;;;;;;;;;;6.59;100.00;99875.81;5004185;28;19921;-88
2023/12/06 18:45:27;;;;;;;;;;;;;;;6.62;100.00;99873.09;5003186;28;19921;-88
2023/12/06 18:47:52;;;;;;;;;;;;;;;6.62;100.00;99874.84;5003093;28;19922;-86
2023/12/06 18:50:17;;;;;;;;;;;;;;;6.66;100.00;99881.78;5002236;28;20297;-87
2023/12/06 18:52:43;;;;;;;;;;;;;;;6.68;100.00;99872.91;5005369;28;19960;-84
2023/12/06 18:55:08;;;;;;;;;;;;;;;6.68;100.00;99875.56;5003568;28;20279;-86
2023/12/06 18:57:33;;;;;;;;;;;;;;;6.63;100.00;99871.31;5004156;28;20365;-88
2023/12/06 18:59:58;;;;;;;;;;;;;;;6.63;100.00;99872.19;5002213;28;19921;-85
2023/12/06 19:02:24;;;;;;;;;;;;;;;6.60;100.00;99874.03;4999439;28;19921;-85
2023/12/06 19:04:49;;;;;;;;;;;;;;;6.59;100.00;99878.44;5001817;28;19922;-86